Time;durP1;ratioP1;P1;durP2;ratioP2;P2;SDS_P1;SDS_P2;PMS_P1;PMS_P2;Temp;Humidity;BMP_temperature;BMP_pressure;BME280_temperature;BME280_humidity;BME280_pressure;Samples;Min_cycle;Max_cycle;Signal;HPM_P1;HPM_P2
2022/09/12 00:00:50;;;;;;;21.10;17.90;;;;;;;13.00;100.00;98868.28;1741859;78;20983;-88
2022/09/12 00:03:17;;;;;;;20.32;16.12;;;;;;;13.03;100.00;98860.98;1810172;78;21022;-80
2022/09/12 00:05:45;;;;;;;23.65;18.37;;;;;;;13.08;100.00;98855.53;1799777;78;21631;-76
2022/09/12 00:08:12;;;;;;;22.00;17.32;;;;;;;13.15;100.00;98861.95;1752593;80;21105;-74
2022/09/12 00:10:41;;;;;;;21.68;17.35;;;;;;;13.18;100.00;98860.85;1810888;79;21477;-77
2022/09/12 00:13:08;;;;;;;25.48;19.02;;;;;;;13.21;100.00;98864.31;1810602;79;21136;-76
2022/09/12 00:15:41;;;;;;;18.50;15.65;;;;;;;13.25;100.00;98849.14;1782874;79;21239;-80
2022/09/12 00:18:15;;;;;;;20.35;15.08;;;;;;;13.28;100.00;98853.19;1780140;80;21606;-74
2022/09/12 00:20:43;;;;;;;22.87;18.07;;;;;;;13.25;100.00;98851.84;1785673;79;21109;-78
2022/09/12 00:23:10;;;;;;;23.83;17.80;;;;;;;13.19;100.00;98848.94;1792786;79;21049;-77
2022/09/12 00:25:43;;;;;;;22.00;18.23;;;;;;;13.25;100.00;98845.64;1794296;79;21011;-78
2022/09/12 00:28:10;;;;;;;17.32;14.40;;;;;;;13.27;100.00;98848.87;1790210;79;21108;-80
2022/09/12 00:30:44;;;;;;;22.15;17.85;;;;;;;13.33;100.00;98844.45;1798135;79;21032;-74
2022/09/12 00:33:11;;;;;;;26.53;19.37;;;;;;;13.29;100.00;98839.38;1783610;79;21007;-73
2022/09/12 00:35:44;;;;;;;21.90;17.52;;;;;;;13.22;100.00;98836.23;1784021;79;21125;-72
2022/09/12 00:38:13;;;;;;;23.12;16.75;;;;;;;13.24;100.00;98834.03;1783412;79;25095;-73
2022/09/12 00:40:41;;;;;;;22.67;18.12;;;;;;;13.29;100.00;98830.46;1742293;82;21477;-73
2022/09/12 00:43:33;;;;;;;22.62;17.30;;;;;;;13.31;100.00;98825.05;1741107;80;21620;-74
2022/09/12 00:46:04;;;;;;;22.82;18.57;;;;;;;13.41;100.00;98824.92;1771512;79;21009;-73
2022/09/12 00:48:45;;;;;;;22.58;20.17;;;;;;;13.45;100.00;98819.20;1788274;79;21142;-75
2022/09/12 00:51:11;;;;;;;23.32;19.32;;;;;;;13.53;100.00;98818.55;1787355;79;21570;-77
2022/09/12 00:53:40;;;;;;;24.55;18.40;;;;;;;13.53;100.00;98806.93;1784353;79;21112;-75
2022/09/12 00:56:06;;;;;;;24.20;19.20;;;;;;;13.51;100.00;98809.14;1768213;80;21604;-74
2022/09/12 00:58:38;;;;;;;22.27;18.95;;;;;;;13.59;100.00;98803.62;1811554;79;21305;-74
2022/09/12 01:01:05;;;;;;;25.27;19.00;;;;;;;13.59;100.00;98806.31;1814362;79;21127;-73
2022/09/12 01:03:32;;;;;;;19.65;15.68;;;;;;;13.61;100.00;98800.09;1812884;79;21246;-76
2022/09/12 01:06:24;;;;;;;23.80;18.35;;;;;;;13.61;100.00;98806.30;1782093;80;20964;-75
2022/09/12 01:08:51;;;;;;;22.90;17.82;;;;;;;13.56;100.00;98806.37;1747785;80;21093;-72
2022/09/12 01:11:18;;;;;;;17.45;15.28;;;;;;;13.46;100.00;98805.15;1742108;82;21342;-73
2022/09/12 01:13:45;;;;;;;24.37;18.00;;;;;;;13.39;100.00;98820.89;1746297;81;21085;-74
2022/09/12 01:16:12;;;;;;;24.57;18.25;;;;;;;13.32;100.00;98809.66;1807881;79;21019;-74
2022/09/12 01:18:52;;;;;;;23.05;17.10;;;;;;;13.27;100.00;98817.81;1790360;80;21062;-75
2022/09/12 01:21:48;;;;;;;21.77;19.35;;;;;;;13.26;100.00;98814.84;1763200;80;21197;-74
2022/09/12 01:24:26;;;;;;;22.48;17.32;;;;;;;13.31;100.00;98813.44;1745737;81;21035;-76
2022/09/12 01:27:38;;;;;;;21.48;18.05;;;;;;;13.35;100.00;98807.17;1770733;80;21161;-75
2022/09/12 01:30:43;;;;;;;20.62;16.87;;;;;;;13.42;100.00;98817.09;1779294;79;20960;-74
2022/09/12 01:33:33;;;;;;;19.17;15.78;;;;;;;13.47;100.00;98808.92;1782356;79;21013;-76
2022/09/12 01:36:39;;;;;;;25.97;20.10;;;;;;;13.42;100.00;98815.73;1742221;79;21067;-79
2022/09/12 01:39:36;;;;;;;29.37;20.60;;;;;;;13.41;100.00;98810.07;1798355;79;21021;-77
2022/09/12 01:42:17;;;;;;;27.48;20.05;;;;;;;13.40;100.00;98811.16;1734154;81;21117;-76
2022/09/12 01:45:13;;;;;;;25.30;18.15;;;;;;;13.43;100.00;98809.77;1758719;81;21563;-75
2022/09/12 01:48:00;;;;;;;30.45;20.60;;;;;;;13.50;100.00;98808.88;1758533;80;21106;-75
2022/09/12 01:50:29;;;;;;;23.22;18.35;;;;;;;13.47;100.00;98802.71;1775957;79;21068;-72
2022/09/12 01:53:08;;;;;;;35.90;22.67;;;;;;;13.43;100.00;98797.06;1777869;79;20985;-74
2022/09/12 01:55:43;;;;;;;17.98;16.07;;;;;;;13.36;100.00;98802.58;1772462;79;21154;-75
2022/09/12 01:58:39;;;;;;;23.22;18.10;;;;;;;13.38;100.00;98801.18;1754212;80;21640;-75
2022/09/12 02:01:14;;;;;;;27.30;21.07;;;;;;;13.40;100.00;98800.89;1779831;79;20948;-74
2022/09/12 02:03:58;;;;;;;28.27;22.22;;;;;;;13.49;100.00;98795.91;1755089;80;21067;-74
2022/09/12 02:06:30;;;;;;;31.27;22.17;;;;;;;13.51;100.00;98792.38;1760891;81;22231;-73
2022/09/12 02:09:04;;;;;;;21.62;18.35;;;;;;;13.54;100.00;98787.73;1748901;79;21017;-73
2022/09/12 02:11:32;;;;;;;31.37;22.60;;;;;;;13.60;100.00;98784.42;1754019;81;21649;-73
2022/09/12 02:14:10;;;;;;;24.00;20.90;;;;;;;13.64;100.00;98784.09;1767268;79;20977;-73
2022/09/12 02:16:52;;;;;;;21.45;18.77;;;;;;;13.66;100.00;98781.11;1752819;80;21047;-74
2022/09/12 02:19:27;;;;;;;24.18;19.10;;;;;;;13.72;100.00;98781.27;1756915;80;21115;-72
2022/09/12 02:21:59;;;;;;;19.77;17.80;;;;;;;13.76;100.00;98780.42;1776812;80;21732;-73
2022/09/12 02:24:39;;;;;;;25.45;21.50;;;;;;;13.80;100.00;98788.73;1780730;79;21042;-73
2022/09/12 02:27:17;;;;;;;29.23;22.55;;;;;;;13.72;100.00;98783.42;1778144;78;21019;-71
2022/09/12 02:29:43;;;;;;;27.58;23.65;;;;;;;13.67;100.00;98792.95;1758977;80;20979;-71
2022/09/12 02:32:41;;;;;;;27.82;21.23;;;;;;;13.68;100.00;98788.36;1789376;79;21493;-71
2022/09/12 02:35:22;;;;;;;19.40;17.05;;;;;;;13.74;100.00;98784.50;1795485;79;21142;-72
2022/09/12 02:38:10;;;;;;;26.35;19.92;;;;;;;13.79;100.00;98781.72;1775988;79;21051;-73
2022/09/12 02:40:37;;;;;;;30.00;21.12;;;;;;;13.77;100.00;98783.36;1796615;79;21564;-72
2022/09/12 02:43:04;;;;;;;23.62;20.85;;;;;;;13.79;100.00;98779.83;1800262;79;21008;-73
2022/09/12 02:45:33;;;;;;;25.85;21.23;;;;;;;13.81;100.00;98776.27;1788478;79;21036;-73
2022/09/12 02:48:18;;;;;;;26.27;21.65;;;;;;;13.80;100.00;98780.09;1760365;79;21265;-72
2022/09/12 02:50:44;;;;;;;27.82;21.00;;;;;;;13.81;100.00;98777.61;1813560;79;21008;-73
2022/09/12 02:53:11;;;;;;;24.40;20.70;;;;;;;13.90;100.00;98785.34;1805052;79;20972;-73
2022/09/12 02:55:39;;;;;;;23.95;21.07;;;;;;;13.97;100.00;98789.01;1805256;79;21501;-71
2022/09/12 02:58:10;;;;;;;24.77;22.07;;;;;;;14.04;100.00;98788.10;1782466;80;20917;-73
2022/09/12 03:00:41;;;;;;;20.85;18.82;;;;;;;14.09;100.00;98789.37;1788766;79;21146;-71
2022/09/12 03:03:43;;;;;;;25.40;22.77;;;;;;;14.13;100.00;98790.94;1778505;79;21035;-71
2022/09/12 03:06:22;;;;;;;25.68;22.93;;;;;;;14.11;100.00;98792.57;1782453;80;21036;-72
2022/09/12 03:09:21;;;;;;;24.95;21.42;;;;;;;14.13;100.00;98797.70;1731472;79;21005;-72
2022/09/12 03:12:10;;;;;;;23.52;20.35;;;;;;;14.17;100.00;98798.70;1814622;79;21559;-72
2022/09/12 03:14:54;;;;;;;21.77;19.48;;;;;;;14.22;100.00;98799.44;1809619;79;22076;-72
2022/09/12 03:17:32;;;;;;;22.62;19.65;;;;;;;14.27;100.00;98793.14;1775752;79;20893;-75
2022/09/12 03:20:24;;;;;;;23.45;19.10;;;;;;;14.33;100.00;98798.18;1765062;80;20936;-71
2022/09/12 03:23:07;;;;;;;23.20;19.30;;;;;;;14.38;100.00;98795.97;1776438;79;20991;-71
2022/09/12 03:25:44;;;;;;;20.57;17.32;;;;;;;14.43;100.00;98799.94;1791507;79;21035;-73
2022/09/12 03:28:15;;;;;;;21.80;18.07;;;;;;;14.45;100.00;98792.31;1758290;80;21125;-73
2022/09/12 03:30:47;;;;;;;21.65;17.90;;;;;;;14.40;100.00;98789.14;1734232;79;21040;-71
2022/09/12 03:33:19;;;;;;;18.27;16.37;;;;;;;14.36;100.00;98794.91;1797227;79;21059;-72
2022/09/12 03:35:46;;;;;;;20.88;17.42;;;;;;;14.35;100.00;98791.09;1788639;79;21468;-72
2022/09/12 03:38:13;;;;;;;21.90;17.95;;;;;;;14.37;100.00;98797.86;1794584;79;21071;-71
2022/09/12 03:40:40;;;;;;;16.90;15.10;;;;;;;14.40;100.00;98793.75;1784165;79;21923;-71
2022/09/12 03:43:07;;;;;;;13.28;11.63;;;;;;;14.44;100.00;98796.66;1784139;79;20991;-69
2022/09/12 03:45:35;;;;;;;18.17;16.20;;;;;;;14.46;100.00;98796.63;1785671;79;21035;-72
2022/09/12 03:48:04;;;;;;;17.50;15.72;;;;;;;14.52;100.00;98796.00;1758647;80;21004;-69
2022/09/12 03:50:31;;;;;;;15.88;14.25;;;;;;;14.56;100.00;98792.95;1789083;78;20992;-72
2022/09/12 03:52:59;;;;;;;15.75;13.78;;;;;;;14.56;100.00;98796.45;1804162;78;21082;-72
2022/09/12 03:55:27;;;;;;;14.68;13.18;;;;;;;14.55;100.00;98800.25;1816615;78;21040;-73
2022/09/12 03:57:54;;;;;;;15.68;13.18;;;;;;;14.58;100.00;98804.28;1802409;78;21086;-72
2022/09/12 04:00:20;;;;;;;16.30;13.08;;;;;;;14.58;100.00;98802.36;1790913;78;21157;-72
2022/09/12 04:02:47;;;;;;;14.10;11.70;;;;;;;14.61;100.00;98796.92;1800309;78;21578;-70
2022/09/12 04:05:14;;;;;;;12.23;10.93;;;;;;;14.67;100.00;98804.66;1793304;78;21784;-72
2022/09/12 04:07:41;;;;;;;11.53;10.43;;;;;;;14.74;100.00;98806.95;1787493;80;21018;-72
2022/09/12 04:10:09;;;;;;;15.03;12.73;;;;;;;14.75;100.00;98802.61;1794213;78;21083;-72
2022/09/12 04:12:35;;;;;;;14.68;12.03;;;;;;;14.72;100.00;98810.53;1727233;80;21533;-71
2022/09/12 04:15:02;;;;;;;12.98;11.53;;;;;;;14.72;100.00;98807.82;1785601;78;21536;-70
2022/09/12 04:17:30;;;;;;;10.25;9.25;;;;;;;14.73;100.00;98806.70;1729057;81;22076;-72
2022/09/12 04:19:57;;;;;;;12.28;11.18;;;;;;;14.74;100.00;98811.82;1782684;79;21043;-72
2022/09/12 04:22:24;;;;;;;9.70;8.38;;;;;;;14.74;100.00;98812.37;1784071;79;21386;-71
2022/09/12 04:24:50;;;;;;;10.78;8.73;;;;;;;14.74;100.00;98817.78;1775820;79;21070;-68
2022/09/12 04:27:17;;;;;;;10.82;9.53;;;;;;;14.74;100.00;98815.88;1817553;79;21306;-71
2022/09/12 04:29:43;;;;;;;12.58;11.22;;;;;;;14.74;100.00;98817.78;1795083;79;21096;-70
2022/09/12 04:32:10;;;;;;;9.73;8.83;;;;;;;14.75;100.00;98817.49;1798528;79;20991;-70
2022/09/12 04:34:37;;;;;;;12.43;10.85;;;;;;;14.73;100.00;98822.94;1800823;79;21524;-67
2022/09/12 04:37:04;;;;;;;11.05;9.93;;;;;;;14.70;100.00;98814.88;1817310;79;20987;-70
2022/09/12 04:39:30;;;;;;;12.47;10.05;;;;;;;14.70;100.00;98820.30;1813628;79;22590;-70
2022/09/12 04:41:57;;;;;;;12.60;10.18;;;;;;;14.67;100.00;98820.09;1797990;79;21113;-71
2022/09/12 04:44:24;;;;;;;10.98;9.55;;;;;;;14.69;100.00;98823.28;1710954;83;20968;-71
2022/09/12 04:46:51;;;;;;;4.92;4.12;;;;;;;14.72;100.00;98849.77;1742720;82;21101;-71
2022/09/12 04:49:18;;;;;;;3.70;2.87;;;;;;;14.50;100.00;98863.93;1743519;80;21082;-70
2022/09/12 04:51:45;;;;;;;2.50;2.30;;;;;;;14.16;97.62;98845.22;1763084;80;21071;-70
2022/09/12 04:54:16;;;;;;;1.80;1.70;;;;;;;13.87;96.36;98844.57;1742465;82;21679;-71
2022/09/12 04:56:46;;;;;;;1.85;1.60;;;;;;;13.65;96.17;98865.41;1757907;80;21071;-69
2022/09/12 04:59:14;;;;;;;2.02;1.27;;;;;;;13.40;94.81;98857.61;1742211;82;21055;-70
2022/09/12 05:01:41;;;;;;;1.05;1.00;;;;;;;13.16;94.14;98855.46;1764021;80;21182;-70
2022/09/12 05:04:09;;;;;;;0.80;0.80;;;;;;;12.99;94.36;98858.59;1768343;80;21575;-71
2022/09/12 05:06:38;;;;;;;0.98;0.98;;;;;;;12.85;94.49;98855.77;1772397;80;21577;-70
2022/09/12 05:09:06;;;;;;;0.75;0.75;;;;;;;12.73;94.73;98863.42;1773192;80;21007;-73
2022/09/12 05:11:35;;;;;;;1.02;0.95;;;;;;;12.62;94.91;98856.50;1754468;80;21030;-71
2022/09/12 05:14:03;;;;;;;1.42;0.98;;;;;;;12.52;95.31;98866.83;1742645;82;21167;-73
2022/09/12 05:16:31;;;;;;;0.98;0.90;;;;;;;12.46;95.69;98863.13;1742354;82;21559;-71
2022/09/12 05:18:59;;;;;;;2.17;0.90;;;;;;;12.43;96.03;98865.02;1743397;80;21496;-70
2022/09/12 05:21:26;;;;;;;5.40;0.98;;;;;;;12.39;96.15;98859.94;1760236;80;20981;-73
2022/09/12 05:23:56;;;;;;;0.90;0.90;;;;;;;12.35;96.49;98862.39;1737008;80;21602;-71
2022/09/12 05:26:23;;;;;;;0.98;0.82;;;;;;;12.31;96.60;98869.44;1729209;81;21094;-71
2022/09/12 05:28:50;;;;;;;0.80;0.80;;;;;;;12.30;97.02;98871.06;1750805;81;21801;-71
2022/09/12 05:31:24;;;;;;;0.85;0.85;;;;;;;12.26;97.22;98865.97;1746941;81;21364;-71
2022/09/12 05:33:52;;;;;;;1.10;1.10;;;;;;;12.23;97.60;98861.94;1705370;82;21018;-72
2022/09/12 05:36:24;;;;;;;2.35;0.85;;;;;;;12.22;97.98;98857.66;1736179;81;21109;-70
2022/09/12 05:38:51;;;;;;;0.70;0.70;;;;;;;12.23;98.44;98856.54;1719788;82;21113;-71
2022/09/12 05:41:26;;;;;;;1.20;0.90;;;;;;;12.24;98.68;98852.77;1749594;81;21102;-74
2022/09/12 05:43:54;;;;;;;3.35;1.20;;;;;;;12.28;99.11;98868.64;1752399;81;21133;-71
2022/09/12 05:46:24;;;;;;;1.20;1.07;;;;;;;12.34;99.36;98861.32;1752063;81;21008;-71
2022/09/12 05:48:51;;;;;;;1.42;1.22;;;;;;;12.35;99.38;98857.01;1751603;81;21031;-72
2022/09/12 05:51:21;;;;;;;1.10;1.07;;;;;;;12.37;99.58;98856.73;1731941;82;21557;-70
2022/09/12 05:53:51;;;;;;;1.95;1.77;;;;;;;12.38;99.68;98846.19;1734028;81;21118;-71
2022/09/12 05:56:22;;;;;;;1.47;1.37;;;;;;;12.35;99.59;98857.55;1733985;81;21299;-71
2022/09/12 05:59:04;;;;;;;1.57;1.47;;;;;;;12.33;99.78;98861.05;1746758;81;21524;-70
2022/09/12 06:01:33;;;;;;;1.52;1.30;;;;;;;12.33;99.95;98859.16;1714295;82;21014;-73
2022/09/12 06:04:02;;;;;;;1.52;1.42;;;;;;;12.36;100.00;98861.31;1736508;81;21038;-70
2022/09/12 06:06:30;;;;;;;1.42;1.30;;;;;;;12.37;99.86;98858.89;1755833;80;21076;-71
2022/09/12 06:09:00;;;;;;;2.22;1.57;;;;;;;12.41;100.00;98854.54;1734513;82;21198;-73
2022/09/12 06:11:29;;;;;;;3.55;1.32;;;;;;;12.45;99.98;98856.92;1728415;80;21089;-70
2022/09/12 06:13:57;;;;;;;1.70;1.60;;;;;;;12.48;100.00;98855.00;1740707;81;21543;-70
2022/09/12 06:16:28;;;;;;;4.50;1.95;;;;;;;12.49;99.93;98854.46;1752637;81;21071;-69
2022/09/12 06:19:00;;;;;;;1.80;1.45;;;;;;;12.50;99.93;98852.03;1739422;81;21105;-68
2022/09/12 06:21:27;;;;;;;1.32;1.22;;;;;;;12.54;100.00;98861.97;1738592;81;21120;-70
2022/09/12 06:23:54;;;;;;;2.00;1.10;;;;;;;12.56;99.83;98864.39;1742139;80;20998;-70
2022/09/12 06:26:22;;;;;;;1.45;1.35;;;;;;;12.58;99.70;98854.92;1748563;80;20983;-69
2022/09/12 06:28:49;;;;;;;2.87;1.67;;;;;;;12.64;99.69;98863.78;1766897;80;20986;-77
2022/09/12 06:31:18;;;;;;;1.10;1.00;;;;;;;12.68;99.45;98867.52;1796190;79;21122;-69
2022/09/12 06:33:49;;;;;;;1.62;1.52;;;;;;;12.71;99.17;98860.19;1773646;80;21791;-70
2022/09/12 06:36:22;;;;;;;2.17;1.25;;;;;;;12.71;98.82;98868.28;1745373;80;20972;-68
2022/09/12 06:38:56;;;;;;;3.42;1.02;;;;;;;12.74;98.83;98869.62;1759025;80;21007;-70
2022/09/12 06:41:24;;;;;;;1.42;1.32;;;;;;;12.79;98.67;98875.79;1744016;80;22229;-69
2022/09/12 06:43:50;;;;;;;1.52;1.20;;;;;;;12.81;98.09;98874.13;1742776;82;21495;-70
2022/09/12 06:46:17;;;;;;;1.02;1.02;;;;;;;12.80;97.76;98872.55;1742489;82;21154;-70
2022/09/12 06:48:44;;;;;;;1.27;1.17;;;;;;;12.84;97.70;98881.14;1771400;80;20990;-70
2022/09/12 06:51:14;;;;;;;1.00;0.90;;;;;;;12.85;97.23;98881.41;1773101;80;21461;-71
2022/09/12 06:53:41;;;;;;;1.37;1.27;;;;;;;12.85;96.96;98885.99;1772185;80;20908;-70
2022/09/12 06:56:14;;;;;;;1.17;1.10;;;;;;;12.84;96.73;98881.14;1755131;80;21034;-71
2022/09/12 06:58:41;;;;;;;1.20;1.15;;;;;;;12.80;96.72;98880.10;1748944;80;26952;-70
2022/09/12 07:01:19;;;;;;;1.40;1.30;;;;;;;12.81;96.80;98880.87;1744535;80;21050;-70
2022/09/12 07:03:51;;;;;;;0.93;0.93;;;;;;;12.85;96.79;98881.41;1714648;82;21557;-69
2022/09/12 07:06:20;;;;;;;1.42;1.12;;;;;;;12.89;96.49;98879.74;1744450;80;20994;-70
2022/09/12 07:08:47;;;;;;;1.20;1.10;;;;;;;12.94;96.44;98878.89;1754784;80;21066;-70
2022/09/12 07:11:19;;;;;;;1.20;1.10;;;;;;;12.99;96.10;98887.75;1744555;80;21129;-69
2022/09/12 07:13:49;;;;;;;1.55;1.20;;;;;;;13.03;95.57;98887.97;1760051;80;21588;-69
2022/09/12 07:16:16;;;;;;;2.52;1.15;;;;;;;13.05;95.20;98884.42;1790034;80;20912;-69
2022/09/12 07:18:45;;;;;;;1.92;1.32;;;;;;;13.05;95.06;98886.58;1755007;81;21496;-68
2022/09/12 07:21:13;;;;;;;1.40;1.22;;;;;;;13.07;95.07;98883.06;1789254;79;21654;-67
2022/09/12 07:23:41;;;;;;;1.70;1.60;;;;;;;13.12;95.28;98884.12;1721436;80;21528;-69
2022/09/12 07:26:12;;;;;;;3.08;1.45;;;;;;;13.19;95.32;98884.04;1772851;80;21070;-68
2022/09/12 07:28:40;;;;;;;1.40;1.30;;;;;;;13.26;95.05;98883.16;1750718;80;21070;-67
2022/09/12 07:31:12;;;;;;;1.40;1.30;;;;;;;13.28;94.58;98878.84;1764268;80;21484;-67
2022/09/12 07:33:39;;;;;;;5.53;1.75;;;;;;;13.23;94.41;98882.94;1767900;80;21038;-68
2022/09/12 07:36:12;;;;;;;5.95;1.80;;;;;;;13.20;94.71;98881.60;1765631;80;21074;-68
2022/09/12 07:38:39;;;;;;;3.67;1.50;;;;;;;13.18;94.40;98887.05;1759585;80;24240;-67
2022/09/12 07:41:20;;;;;;;1.50;1.40;;;;;;;13.14;94.51;98881.96;1793248;79;21560;-66
2022/09/12 07:43:49;;;;;;;1.67;1.55;;;;;;;13.21;94.94;98888.62;1801457;79;20984;-67
2022/09/12 07:46:16;;;;;;;2.17;1.80;;;;;;;13.27;94.51;98886.13;1758380;80;21619;-67
2022/09/12 07:48:44;;;;;;;3.42;1.87;;;;;;;13.35;94.51;98884.69;1790106;79;21157;-67
2022/09/12 07:51:11;;;;;;;2.75;2.02;;;;;;;13.43;94.23;98887.55;1794081;79;20995;-68
2022/09/12 07:53:40;;;;;;;5.50;5.00;;;;;;;13.50;93.78;98892.61;1712770;83;21527;-69
2022/09/12 07:56:09;;;;;;;1.95;1.82;;;;;;;13.51;93.17;98886.13;1764440;80;21258;-68
2022/09/12 07:58:37;;;;;;;2.12;1.87;;;;;;;13.50;92.83;98888.56;1761876;80;21051;-68
2022/09/12 08:01:15;;;;;;;2.05;1.60;;;;;;;13.53;92.88;98887.44;1761602;80;21758;-68
2022/09/12 08:03:42;;;;;;;2.25;2.00;;;;;;;13.59;92.87;98888.17;1763256;80;21049;-68
2022/09/12 08:06:14;;;;;;;5.25;1.90;;;;;;;13.70;92.67;98886.16;1765426;80;21007;-69
2022/09/12 08:08:43;;;;;;;4.33;1.75;;;;;;;13.73;91.78;98887.73;1753233;80;21023;-70
2022/09/12 08:11:12;;;;;;;3.10;2.80;;;;;;;13.76;91.38;98889.88;1754533;80;21016;-68
2022/09/12 08:13:41;;;;;;;4.78;2.30;;;;;;;13.76;91.04;98885.82;1754040;80;21051;-69
2022/09/12 08:16:15;;;;;;;2.83;2.40;;;;;;;13.79;90.50;98891.98;1789929;80;20943;-69
2022/09/12 08:18:41;;;;;;;2.10;1.90;;;;;;;13.80;90.12;98890.09;1739025;81;21054;-67
2022/09/12 08:21:13;;;;;;;2.10;2.00;;;;;;;13.83;90.02;98890.30;1713998;82;21041;-69
2022/09/12 08:23:41;;;;;;;4.97;2.58;;;;;;;13.82;89.16;98894.64;1747701;80;21050;-68
2022/09/12 08:26:08;;;;;;;2.55;2.35;;;;;;;13.74;89.17;98896.64;1742810;82;21330;-67
2022/09/12 08:28:35;;;;;;;2.58;1.72;;;;;;;13.76;89.38;98899.33;1744746;81;20943;-67
2022/09/12 08:31:08;;;;;;;2.20;1.52;;;;;;;13.81;88.98;98899.81;1745880;81;21032;-69
2022/09/12 08:33:35;;;;;;;8.13;2.22;;;;;;;13.85;88.32;98902.19;1714352;82;21073;-68
2022/09/12 08:36:10;;;;;;;2.00;1.52;;;;;;;13.87;88.06;98899.98;1736100;82;21527;-67
2022/09/12 08:38:40;;;;;;;3.92;2.00;;;;;;;13.89;87.55;98900.51;1769212;79;21193;-67
2022/09/12 08:41:33;;;;;;;2.85;1.98;;;;;;;13.88;87.26;98896.19;1770501;80;20995;-68
2022/09/12 08:44:48;;;;;;;1.60;1.20;;;;;;;13.93;86.73;98891.52;1781471;80;21003;-67
2022/09/12 08:47:20;;;;;;;1.77;1.37;;;;;;;13.98;85.73;98885.24;1790988;79;20998;-68
2022/09/12 08:50:11;;;;;;;1.37;1.27;;;;;;;13.96;84.21;98888.23;1793306;80;21017;-66
2022/09/12 08:53:01;;;;;;;5.67;2.27;;;;;;;13.93;84.36;98892.06;1791273;79;21777;-67
2022/09/12 08:55:43;;;;;;;2.92;1.95;;;;;;;13.89;84.28;98885.64;1766233;80;21492;-67
2022/09/12 08:58:19;;;;;;;1.37;1.10;;;;;;;13.95;84.52;98885.84;1766745;80;21118;-67
2022/09/12 09:00:55;;;;;;;3.50;3.15;;;;;;;14.00;83.77;98881.71;1773351;80;20986;-67
2022/09/12 09:03:49;;;;;;;2.45;2.20;;;;;;;13.99;83.38;98881.45;1768665;79;21040;-68
2022/09/12 09:06:36;;;;;;;4.72;2.58;;;;;;;14.02;82.55;98871.39;1766195;79;21266;-66
2022/09/12 09:09:38;;;;;;;2.20;2.00;;;;;;;14.02;82.41;98881.41;1765825;79;21090;-68
2022/09/12 09:12:25;;;;;;;5.47;1.98;;;;;;;14.00;82.25;98874.95;1736068;82;20996;-67
2022/09/12 09:15:22;;;;;;;4.67;2.52;;;;;;;14.00;82.68;98879.55;1750881;80;21075;-67
2022/09/12 09:17:54;;;;;;;3.27;2.58;;;;;;;14.02;82.81;98881.41;1703058;82;21023;-65
2022/09/12 09:20:41;;;;;;;6.55;2.83;;;;;;;14.06;83.03;98879.17;1757081;80;21160;-67
2022/09/12 09:23:14;;;;;;;2.75;2.33;;;;;;;14.08;83.16;98876.98;1774939;79;21535;-67
2022/09/12 09:25:52;;;;;;;5.83;3.47;;;;;;;14.11;83.26;98883.16;1738378;80;21051;-68
2022/09/12 09:28:38;;;;;;;6.78;5.28;;;;;;;14.10;83.00;98880.77;1746284;80;21221;-68
2022/09/12 09:31:23;;;;;;;3.35;3.02;;;;;;;14.08;83.01;98882.40;1741939;82;21018;-66
2022/09/12 09:33:54;;;;;;;2.95;2.75;;;;;;;14.13;82.50;98885.58;1742388;82;22630;-67
2022/09/12 09:36:32;;;;;;;2.90;2.70;;;;;;;14.18;82.79;98889.56;1756732;80;20999;-67
2022/09/12 09:39:10;;;;;;;2.50;2.30;;;;;;;14.22;82.43;98887.33;1752392;80;21098;-68
2022/09/12 09:41:57;;;;;;;5.60;3.40;;;;;;;14.20;80.99;98884.10;1772869;80;21196;-68
2022/09/12 09:44:23;;;;;;;4.33;3.37;;;;;;;14.26;81.61;98878.07;1772692;80;20963;-66
2022/09/12 09:46:53;;;;;;;4.95;3.40;;;;;;;14.35;81.04;98881.17;1768445;80;21063;-66
2022/09/12 09:49:20;;;;;;;3.65;3.35;;;;;;;14.42;81.44;98878.14;1768291;81;21499;-66
2022/09/12 09:51:46;;;;;;;3.98;3.62;;;;;;;14.54;81.96;98881.17;1789852;80;21030;-66
2022/09/12 09:54:25;;;;;;;4.03;3.33;;;;;;;14.64;81.42;98877.50;1795684;79;21006;-67
2022/09/12 09:56:51;;;;;;;4.55;3.77;;;;;;;14.67;80.38;98882.34;1778781;79;20909;-72
2022/09/12 09:59:22;;;;;;;7.33;3.00;;;;;;;14.72;81.06;98885.73;1742013;81;21077;-72
2022/09/12 10:01:56;;;;;;;3.35;3.05;;;;;;;14.83;80.11;98895.30;1717949;82;21122;-71
2022/09/12 10:04:30;;;;;;;4.95;3.02;;;;;;;14.87;78.81;98885.25;1749803;80;20963;-70
2022/09/12 10:07:00;;;;;;;7.80;2.92;;;;;;;14.88;78.58;98892.25;1771856;81;21156;-70
2022/09/12 10:09:33;;;;;;;5.28;3.20;;;;;;;14.87;78.17;98890.67;1741911;81;20991;-69
2022/09/12 10:12:01;;;;;;;5.30;3.80;;;;;;;14.85;78.37;98896.37;1747650;81;21971;-72
2022/09/12 10:14:40;;;;;;;3.40;2.47;;;;;;;14.87;78.39;98900.14;1717539;82;21727;-65
2022/09/12 10:17:30;;;;;;;4.28;3.33;;;;;;;14.93;78.66;98893.52;1750613;81;21055;-69
2022/09/12 10:19:57;;;;;;;3.25;2.37;;;;;;;14.98;78.25;98899.66;1714032;81;21515;-69
2022/09/12 10:22:28;;;;;;;9.75;2.75;;;;;;;15.03;76.97;98894.70;1758122;80;20939;-68
2022/09/12 10:25:00;;;;;;;3.30;3.00;;;;;;;15.02;76.35;98895.24;1760891;80;21141;-69
2022/09/12 10:27:31;;;;;;;4.17;2.60;;;;;;;15.10;76.42;98892.41;1738254;81;21053;-72
2022/09/12 10:30:18;;;;;;;2.67;2.35;;;;;;;15.16;76.35;98895.27;1739632;82;21411;-72
2022/09/12 10:32:53;;;;;;;3.37;2.27;;;;;;;15.22;76.14;98890.01;1758471;81;22424;-75
2022/09/12 10:35:29;;;;;;;6.80;5.00;;;;;;;15.25;75.90;98889.42;1759200;81;21039;-69
2022/09/12 10:38:05;;;;;;;7.10;3.05;;;;;;;15.28;75.75;98885.56;1758667;80;21182;-71
2022/09/12 10:40:41;;;;;;;2.33;2.12;;;;;;;15.39;75.74;98887.53;1713446;82;20951;-70
2022/09/12 10:43:28;;;;;;;3.83;1.90;;;;;;;15.45;74.55;98894.44;1707931;82;21580;-69
2022/09/12 10:46:18;;;;;;;1.80;1.70;;;;;;;15.40;73.76;98893.73;1748240;81;21110;-70
2022/09/12 10:48:47;;;;;;;4.25;1.80;;;;;;;15.32;73.55;98886.30;1743170;81;21101;-69
2022/09/12 10:51:27;;;;;;;1.85;1.75;;;;;;;15.29;74.01;98893.14;1792659;79;21302;-69
2022/09/12 10:53:59;;;;;;;2.25;1.57;;;;;;;15.29;73.69;98895.84;1792870;79;21539;-68
2022/09/12 10:56:31;;;;;;;4.30;1.65;;;;;;;15.23;73.37;98901.10;1804393;78;21031;-73
2022/09/12 10:59:41;;;;;;;1.98;1.87;;;;;;;15.20;73.70;98901.13;1803660;79;21552;-68
2022/09/12 11:02:32;;;;;;;2.77;2.42;;;;;;;15.19;73.83;98902.81;1766492;80;21062;-66
2022/09/12 11:05:16;;;;;;;1.65;1.55;;;;;;;15.20;74.24;98910.61;1776928;78;21259;-68
2022/09/12 11:08:03;;;;;;;1.35;1.20;;;;;;;15.26;74.37;98908.08;1795509;79;21019;-72
2022/09/12 11:11:06;;;;;;;1.80;1.70;;;;;;;15.27;73.25;98907.52;1791873;79;21689;-71
2022/09/12 11:13:49;;;;;;;1.22;1.12;;;;;;;15.26;73.18;98909.42;1784977;80;21524;-69
2022/09/12 11:16:37;;;;;;;1.40;1.30;;;;;;;15.26;72.99;98904.01;1790902;79;21047;-75
2022/09/12 11:19:16;;;;;;;2.02;1.87;;;;;;;15.23;73.14;98906.52;1803434;79;21419;-70
2022/09/12 11:22:06;;;;;;;2.22;1.98;;;;;;;15.21;73.45;98905.45;1781049;79;21103;-70
2022/09/12 11:25:08;;;;;;;4.45;2.52;;;;;;;15.25;73.76;98908.39;1797720;79;21539;-70
2022/09/12 11:28:30;;;;;;;5.03;2.87;;;;;;;15.26;74.75;98910.78;1715005;80;21070;-68
2022/09/12 11:31:39;;;;;;;4.92;2.85;;;;;;;15.28;75.87;98907.78;1767353;79;21050;-73
2022/09/12 11:34:10;;;;;;;3.83;3.12;;;;;;;15.25;76.78;98915.16;1782673;79;21176;-75
2022/09/12 11:37:07;;;;;;;4.50;2.90;;;;;;;15.23;77.17;98909.23;1773276;80;20934;-77
2022/09/12 11:39:39;;;;;;;4.90;2.98;;;;;;;15.21;77.57;98910.87;1749980;79;21046;-73
2022/09/12 11:42:18;;;;;;;7.37;2.98;;;;;;;15.24;77.47;98908.94;1773713;79;21012;-68
2022/09/12 11:44:48;;;;;;;4.53;3.08;;;;;;;15.23;78.09;98909.23;1813242;78;20988;-70
2022/09/12 11:47:17;;;;;;;4.80;3.90;;;;;;;15.19;78.38;98910.39;1809720;78;21676;-71
2022/09/12 11:49:50;;;;;;;5.45;4.30;;;;;;;15.15;78.67;98911.28;1814533;78;20995;-67
2022/09/12 11:52:22;;;;;;;5.12;3.47;;;;;;;15.16;79.17;98913.67;1824106;78;22162;-68
2022/09/12 11:55:16;;;;;;;6.30;3.92;;;;;;;15.20;79.08;98913.91;1823993;78;21046;-69
2022/09/12 11:58:03;;;;;;;5.62;3.22;;;;;;;15.19;78.72;98917.70;1820968;77;21051;-69